sensor_id;sensor_type;location;lat;lon;timestamp;P1;durP1;ratioP1;P2;durP2;ratioP2
12654;SDS011;6392;44.644;11.448;2022-11-20T00:01:56;47.47;;;24.90;;
12654;SDS011;6392;44.644;11.448;2022-11-20T00:04:23;47.73;;;23.43;;
12654;SDS011;6392;44.644;11.448;2022-11-20T00:06:50;53.47;;;24.70;;
12654;SDS011;6392;44.644;11.448;2022-11-20T00:09:17;44.77;;;23.47;;
12654;SDS011;6392;44.644;11.448;2022-11-20T00:11:44;44.97;;;24.83;;
12654;SDS011;6392;44.644;11.448;2022-11-20T00:14:13;40.77;;;22.70;;
12654;SDS011;6392;44.644;11.448;2022-11-20T00:16:40;44.67;;;23.73;;
12654;SDS011;6392;44.644;11.448;2022-11-20T00:19:07;40.80;;;21.63;;
12654;SDS011;6392;44.644;11.448;2022-11-20T00:21:34;36.17;;;21.20;;
12654;SDS011;6392;44.644;11.448;2022-11-20T00:24:01;40.23;;;21.13;;
12654;SDS011;6392;44.644;11.448;2022-11-20T00:26:28;38.37;;;20.17;;
12654;SDS011;6392;44.644;11.448;2022-11-20T00:28:56;34.13;;;19.17;;
12654;SDS011;6392;44.644;11.448;2022-11-20T00:31:26;35.83;;;20.03;;
12654;SDS011;6392;44.644;11.448;2022-11-20T00:33:54;32.70;;;19.23;;
12654;SDS011;6392;44.644;11.448;2022-11-20T00:36:22;33.87;;;18.43;;
12654;SDS011;6392;44.644;11.448;2022-11-20T00:38:50;26.33;;;16.73;;
12654;SDS011;6392;44.644;11.448;2022-11-20T00:41:18;28.60;;;15.83;;
12654;SDS011;6392;44.644;11.448;2022-11-20T00:43:45;24.43;;;14.87;;
12654;SDS011;6392;44.644;11.448;2022-11-20T00:46:13;22.80;;;13.90;;
12654;SDS011;6392;44.644;11.448;2022-11-20T00:48:43;22.93;;;12.97;;
12654;SDS011;6392;44.644;11.448;2022-11-20T00:51:11;24.23;;;13.60;;
12654;SDS011;6392;44.644;11.448;2022-11-20T00:53:39;24.03;;;14.33;;
12654;SDS011;6392;44.644;11.448;2022-11-20T00:56:07;22.63;;;14.30;;
12654;SDS011;6392;44.644;11.448;2022-11-20T00:58:37;19.73;;;13.47;;
12654;SDS011;6392;44.644;11.448;2022-11-20T01:01:06;21.00;;;13.20;;
12654;SDS011;6392;44.644;11.448;2022-11-20T01:03:35;18.83;;;14.20;;
12654;SDS011;6392;44.644;11.448;2022-11-20T01:06:05;19.97;;;12.77;;
12654;SDS011;6392;44.644;11.448;2022-11-20T01:08:34;21.77;;;13.13;;
12654;SDS011;6392;44.644;11.448;2022-11-20T01:11:03;19.60;;;13.07;;
12654;SDS011;6392;44.644;11.448;2022-11-20T01:13:33;20.10;;;13.27;;
12654;SDS011;6392;44.644;11.448;2022-11-20T01:16:03;24.23;;;14.07;;
12654;SDS011;6392;44.644;11.448;2022-11-20T01:18:31;25.00;;;16.03;;
12654;SDS011;6392;44.644;11.448;2022-11-20T01:21:00;32.70;;;18.17;;
12654;SDS011;6392;44.644;11.448;2022-11-20T01:23:31;35.00;;;18.73;;
12654;SDS011;6392;44.644;11.448;2022-11-20T01:25:59;33.73;;;19.77;;
12654;SDS011;6392;44.644;11.448;2022-11-20T01:28:27;34.87;;;19.40;;
12654;SDS011;6392;44.644;11.448;2022-11-20T01:30:55;29.80;;;19.07;;
12654;SDS011;6392;44.644;11.448;2022-11-20T01:33:22;27.10;;;18.23;;
12654;SDS011;6392;44.644;11.448;2022-11-20T01:35:50;34.67;;;19.37;;
12654;SDS011;6392;44.644;11.448;2022-11-20T01:38:17;31.93;;;18.87;;
12654;SDS011;6392;44.644;11.448;2022-11-20T01:40:46;33.40;;;18.63;;
12654;SDS011;6392;44.644;11.448;2022-11-20T01:43:20;35.13;;;18.10;;
12654;SDS011;6392;44.644;11.448;2022-11-20T01:45:56;31.97;;;18.10;;
12654;SDS011;6392;44.644;11.448;2022-11-20T01:48:34;34.70;;;19.77;;
12654;SDS011;6392;44.644;11.448;2022-11-20T01:51:05;37.13;;;20.80;;
12654;SDS011;6392;44.644;11.448;2022-11-20T01:53:37;41.87;;;23.37;;
12654;SDS011;6392;44.644;11.448;2022-11-20T01:56:07;38.17;;;20.40;;
12654;SDS011;6392;44.644;11.448;2022-11-20T01:58:38;35.63;;;20.27;;
12654;SDS011;6392;44.644;11.448;2022-11-20T02:01:10;36.13;;;20.10;;
12654;SDS011;6392;44.644;11.448;2022-11-20T02:03:38;37.47;;;20.93;;
12654;SDS011;6392;44.644;11.448;2022-11-20T02:06:07;30.00;;;18.27;;
12654;SDS011;6392;44.644;11.448;2022-11-20T02:08:39;32.60;;;19.00;;
12654;SDS011;6392;44.644;11.448;2022-11-20T02:11:08;29.77;;;17.40;;
12654;SDS011;6392;44.644;11.448;2022-11-20T02:13:35;29.27;;;17.70;;
12654;SDS011;6392;44.644;11.448;2022-11-20T02:16:15;33.07;;;16.80;;
12654;SDS011;6392;44.644;11.448;2022-11-20T02:18:45;24.70;;;15.63;;
12654;SDS011;6392;44.644;11.448;2022-11-20T02:21:15;29.17;;;17.17;;
12654;SDS011;6392;44.644;11.448;2022-11-20T02:23:59;27.90;;;16.33;;
12654;SDS011;6392;44.644;11.448;2022-11-20T02:26:28;28.33;;;17.37;;
12654;SDS011;6392;44.644;11.448;2022-11-20T02:28:57;28.53;;;15.87;;
12654;SDS011;6392;44.644;11.448;2022-11-20T02:31:26;26.17;;;15.40;;
12654;SDS011;6392;44.644;11.448;2022-11-20T02:33:54;23.83;;;16.00;;
12654;SDS011;6392;44.644;11.448;2022-11-20T02:36:22;25.53;;;16.10;;
12654;SDS011;6392;44.644;11.448;2022-11-20T02:38:52;24.50;;;15.83;;
12654;SDS011;6392;44.644;11.448;2022-11-20T02:41:21;24.30;;;15.70;;
12654;SDS011;6392;44.644;11.448;2022-11-20T02:43:56;23.33;;;15.00;;
12654;SDS011;6392;44.644;11.448;2022-11-20T02:46:23;26.57;;;15.67;;
12654;SDS011;6392;44.644;11.448;2022-11-20T02:48:50;24.27;;;15.43;;
12654;SDS011;6392;44.644;11.448;2022-11-20T02:51:17;26.00;;;15.50;;
12654;SDS011;6392;44.644;11.448;2022-11-20T02:53:44;21.77;;;14.30;;
12654;SDS011;6392;44.644;11.448;2022-11-20T02:56:11;26.63;;;15.57;;
12654;SDS011;6392;44.644;11.448;2022-11-20T02:58:40;22.77;;;14.70;;
12654;SDS011;6392;44.644;11.448;2022-11-20T03:01:07;24.30;;;14.83;;
12654;SDS011;6392;44.644;11.448;2022-11-20T03:03:34;24.00;;;14.70;;
12654;SDS011;6392;44.644;11.448;2022-11-20T03:06:01;25.13;;;15.43;;
12654;SDS011;6392;44.644;11.448;2022-11-20T03:08:28;26.53;;;15.30;;
12654;SDS011;6392;44.644;11.448;2022-11-20T03:10:55;26.27;;;15.47;;
12654;SDS011;6392;44.644;11.448;2022-11-20T03:13:24;20.20;;;13.80;;
12654;SDS011;6392;44.644;11.448;2022-11-20T03:15:53;24.73;;;15.73;;
12654;SDS011;6392;44.644;11.448;2022-11-20T03:18:20;30.80;;;16.97;;
12654;SDS011;6392;44.644;11.448;2022-11-20T03:20:47;25.50;;;15.80;;
12654;SDS011;6392;44.644;11.448;2022-11-20T03:23:14;28.10;;;16.77;;
12654;SDS011;6392;44.644;11.448;2022-11-20T03:25:41;26.00;;;14.90;;
12654;SDS011;6392;44.644;11.448;2022-11-20T03:28:08;25.53;;;15.80;;
12654;SDS011;6392;44.644;11.448;2022-11-20T03:30:35;26.53;;;16.47;;
12654;SDS011;6392;44.644;11.448;2022-11-20T03:33:03;27.80;;;15.53;;
12654;SDS011;6392;44.644;11.448;2022-11-20T03:35:30;29.20;;;16.03;;
12654;SDS011;6392;44.644;11.448;2022-11-20T03:37:57;26.67;;;16.10;;
12654;SDS011;6392;44.644;11.448;2022-11-20T03:40:24;26.07;;;15.97;;
12654;SDS011;6392;44.644;11.448;2022-11-20T03:42:52;31.87;;;17.33;;
12654;SDS011;6392;44.644;11.448;2022-11-20T03:45:19;29.17;;;14.87;;
12654;SDS011;6392;44.644;11.448;2022-11-20T03:47:46;26.70;;;16.43;;
12654;SDS011;6392;44.644;11.448;2022-11-20T03:50:14;28.03;;;15.43;;
12654;SDS011;6392;44.644;11.448;2022-11-20T03:52:41;24.93;;;15.70;;
12654;SDS011;6392;44.644;11.448;2022-11-20T03:55:09;27.00;;;15.70;;
12654;SDS011;6392;44.644;11.448;2022-11-20T03:57:36;28.57;;;15.73;;
12654;SDS011;6392;44.644;11.448;2022-11-20T04:00:03;27.80;;;16.07;;
12654;SDS011;6392;44.644;11.448;2022-11-20T04:02:31;28.30;;;16.10;;
12654;SDS011;6392;44.644;11.448;2022-11-20T04:04:58;29.00;;;16.73;;
12654;SDS011;6392;44.644;11.448;2022-11-20T04:07:26;32.53;;;17.00;;
12654;SDS011;6392;44.644;11.448;2022-11-20T04:09:53;27.77;;;15.90;;
12654;SDS011;6392;44.644;11.448;2022-11-20T04:12:20;26.77;;;16.40;;
12654;SDS011;6392;44.644;11.448;2022-11-20T04:14:47;25.77;;;15.97;;
12654;SDS011;6392;44.644;11.448;2022-11-20T04:17:14;27.00;;;16.47;;
12654;SDS011;6392;44.644;11.448;2022-11-20T04:19:41;25.63;;;16.30;;
12654;SDS011;6392;44.644;11.448;2022-11-20T04:22:08;27.77;;;16.67;;
12654;SDS011;6392;44.644;11.448;2022-11-20T04:24:38;29.27;;;16.50;;
12654;SDS011;6392;44.644;11.448;2022-11-20T04:27:05;31.93;;;16.93;;
12654;SDS011;6392;44.644;11.448;2022-11-20T04:29:32;28.23;;;16.27;;
12654;SDS011;6392;44.644;11.448;2022-11-20T04:31:59;27.67;;;16.00;;
12654;SDS011;6392;44.644;11.448;2022-11-20T04:34:26;24.70;;;15.27;;
12654;SDS011;6392;44.644;11.448;2022-11-20T04:36:53;31.57;;;16.93;;
12654;SDS011;6392;44.644;11.448;2022-11-20T04:39:20;27.03;;;15.23;;
12654;SDS011;6392;44.644;11.448;2022-11-20T04:41:48;27.90;;;16.37;;
12654;SDS011;6392;44.644;11.448;2022-11-20T04:44:35;24.03;;;15.17;;
12654;SDS011;6392;44.644;11.448;2022-11-20T04:47:02;27.10;;;15.10;;
12654;SDS011;6392;44.644;11.448;2022-11-20T04:49:29;31.07;;;16.13;;
12654;SDS011;6392;44.644;11.448;2022-11-20T04:51:57;31.87;;;17.90;;
12654;SDS011;6392;44.644;11.448;2022-11-20T04:54:24;27.73;;;16.27;;
12654;SDS011;6392;44.644;11.448;2022-11-20T04:56:53;26.57;;;15.33;;
12654;SDS011;6392;44.644;11.448;2022-11-20T04:59:20;29.50;;;16.43;;
12654;SDS011;6392;44.644;11.448;2022-11-20T05:01:47;27.77;;;15.87;;
12654;SDS011;6392;44.644;11.448;2022-11-20T05:04:14;30.57;;;17.53;;
12654;SDS011;6392;44.644;11.448;2022-11-20T05:06:41;28.40;;;17.33;;
12654;SDS011;6392;44.644;11.448;2022-11-20T05:09:08;30.53;;;16.53;;
12654;SDS011;6392;44.644;11.448;2022-11-20T05:11:35;25.90;;;16.23;;
12654;SDS011;6392;44.644;11.448;2022-11-20T05:14:04;30.90;;;16.37;;
12654;SDS011;6392;44.644;11.448;2022-11-20T05:16:31;31.23;;;16.33;;
12654;SDS011;6392;44.644;11.448;2022-11-20T05:19:01;32.50;;;17.47;;
12654;SDS011;6392;44.644;11.448;2022-11-20T05:21:29;28.33;;;16.73;;
12654;SDS011;6392;44.644;11.448;2022-11-20T05:23:57;26.93;;;16.27;;
12654;SDS011;6392;44.644;11.448;2022-11-20T05:26:24;29.03;;;16.90;;
12654;SDS011;6392;44.644;11.448;2022-11-20T05:28:51;28.53;;;16.33;;
12654;SDS011;6392;44.644;11.448;2022-11-20T05:31:20;31.13;;;17.13;;
12654;SDS011;6392;44.644;11.448;2022-11-20T05:33:48;31.93;;;17.60;;
12654;SDS011;6392;44.644;11.448;2022-11-20T05:36:16;32.53;;;17.07;;
12654;SDS011;6392;44.644;11.448;2022-11-20T05:38:43;33.93;;;17.80;;
12654;SDS011;6392;44.644;11.448;2022-11-20T05:41:11;36.20;;;18.23;;
12654;SDS011;6392;44.644;11.448;2022-11-20T05:43:40;34.57;;;18.60;;
12654;SDS011;6392;44.644;11.448;2022-11-20T05:46:09;35.80;;;18.30;;
12654;SDS011;6392;44.644;11.448;2022-11-20T05:48:38;29.17;;;16.87;;
12654;SDS011;6392;44.644;11.448;2022-11-20T05:51:08;33.60;;;17.90;;
12654;SDS011;6392;44.644;11.448;2022-11-20T05:53:36;31.47;;;17.83;;
12654;SDS011;6392;44.644;11.448;2022-11-20T05:56:06;34.90;;;19.33;;
12654;SDS011;6392;44.644;11.448;2022-11-20T05:58:36;35.07;;;18.87;;
12654;SDS011;6392;44.644;11.448;2022-11-20T06:01:04;39.43;;;19.37;;
12654;SDS011;6392;44.644;11.448;2022-11-20T06:03:33;34.13;;;17.80;;
12654;SDS011;6392;44.644;11.448;2022-11-20T06:06:02;32.97;;;18.60;;
12654;SDS011;6392;44.644;11.448;2022-11-20T06:08:30;33.67;;;18.67;;
12654;SDS011;6392;44.644;11.448;2022-11-20T06:10:57;34.30;;;16.47;;
12654;SDS011;6392;44.644;11.448;2022-11-20T06:13:24;33.43;;;17.97;;
12654;SDS011;6392;44.644;11.448;2022-11-20T06:15:52;33.10;;;17.03;;
12654;SDS011;6392;44.644;11.448;2022-11-20T06:18:19;30.80;;;18.30;;
12654;SDS011;6392;44.644;11.448;2022-11-20T06:20:46;26.87;;;16.97;;
12654;SDS011;6392;44.644;11.448;2022-11-20T06:23:15;33.30;;;17.73;;
12654;SDS011;6392;44.644;11.448;2022-11-20T06:25:42;30.83;;;16.57;;
12654;SDS011;6392;44.644;11.448;2022-11-20T06:28:09;34.50;;;18.67;;
12654;SDS011;6392;44.644;11.448;2022-11-20T06:30:36;36.53;;;18.23;;
12654;SDS011;6392;44.644;11.448;2022-11-20T06:33:03;34.57;;;18.97;;
12654;SDS011;6392;44.644;11.448;2022-11-20T06:35:30;34.00;;;18.20;;
12654;SDS011;6392;44.644;11.448;2022-11-20T06:37:57;35.50;;;18.90;;
12654;SDS011;6392;44.644;11.448;2022-11-20T06:40:26;28.73;;;17.97;;
12654;SDS011;6392;44.644;11.448;2022-11-20T06:42:53;34.43;;;17.80;;
12654;SDS011;6392;44.644;11.448;2022-11-20T06:45:20;34.80;;;18.70;;
12654;SDS011;6392;44.644;11.448;2022-11-20T06:47:48;35.47;;;19.03;;
12654;SDS011;6392;44.644;11.448;2022-11-20T06:50:15;34.67;;;18.00;;
12654;SDS011;6392;44.644;11.448;2022-11-20T06:52:42;33.27;;;17.60;;
12654;SDS011;6392;44.644;11.448;2022-11-20T06:55:09;39.23;;;18.30;;
12654;SDS011;6392;44.644;11.448;2022-11-20T06:57:38;32.80;;;18.73;;
12654;SDS011;6392;44.644;11.448;2022-11-20T07:00:05;38.13;;;20.33;;
12654;SDS011;6392;44.644;11.448;2022-11-20T07:02:33;37.87;;;19.53;;
12654;SDS011;6392;44.644;11.448;2022-11-20T07:05:00;43.27;;;22.33;;
12654;SDS011;6392;44.644;11.448;2022-11-20T07:07:27;40.97;;;23.07;;
12654;SDS011;6392;44.644;11.448;2022-11-20T07:09:54;43.70;;;22.63;;
12654;SDS011;6392;44.644;11.448;2022-11-20T07:12:22;36.77;;;21.10;;
12654;SDS011;6392;44.644;11.448;2022-11-20T07:14:50;45.20;;;23.10;;
12654;SDS011;6392;44.644;11.448;2022-11-20T07:17:17;44.43;;;23.10;;
12654;SDS011;6392;44.644;11.448;2022-11-20T07:19:44;40.10;;;21.63;;
12654;SDS011;6392;44.644;11.448;2022-11-20T07:22:11;46.43;;;24.57;;
12654;SDS011;6392;44.644;11.448;2022-11-20T07:24:38;53.13;;;25.17;;
12654;SDS011;6392;44.644;11.448;2022-11-20T07:27:05;52.13;;;26.30;;
12654;SDS011;6392;44.644;11.448;2022-11-20T07:29:32;43.30;;;24.57;;
12654;SDS011;6392;44.644;11.448;2022-11-20T07:32:01;50.97;;;26.23;;
12654;SDS011;6392;44.644;11.448;2022-11-20T07:34:30;52.60;;;25.83;;
12654;SDS011;6392;44.644;11.448;2022-11-20T07:36:57;43.30;;;23.73;;
12654;SDS011;6392;44.644;11.448;2022-11-20T07:39:24;50.07;;;25.27;;
12654;SDS011;6392;44.644;11.448;2022-11-20T07:41:51;50.23;;;26.07;;
12654;SDS011;6392;44.644;11.448;2022-11-20T07:44:18;58.00;;;28.70;;
12654;SDS011;6392;44.644;11.448;2022-11-20T07:46:45;54.27;;;27.07;;
12654;SDS011;6392;44.644;11.448;2022-11-20T07:49:13;53.63;;;28.03;;
12654;SDS011;6392;44.644;11.448;2022-11-20T07:51:40;61.67;;;27.10;;
12654;SDS011;6392;44.644;11.448;2022-11-20T07:54:08;49.43;;;26.00;;
12654;SDS011;6392;44.644;11.448;2022-11-20T07:56:35;45.50;;;24.63;;
12654;SDS011;6392;44.644;11.448;2022-11-20T07:59:02;51.00;;;26.20;;
12654;SDS011;6392;44.644;11.448;2022-11-20T08:01:30;55.20;;;26.77;;
12654;SDS011;6392;44.644;11.448;2022-11-20T08:03:57;48.60;;;25.10;;
12654;SDS011;6392;44.644;11.448;2022-11-20T08:06:25;51.87;;;24.33;;
12654;SDS011;6392;44.644;11.448;2022-11-20T08:08:53;54.57;;;25.00;;
12654;SDS011;6392;44.644;11.448;2022-11-20T08:11:20;55.67;;;28.00;;
12654;SDS011;6392;44.644;11.448;2022-11-20T08:14:04;51.37;;;26.40;;
12654;SDS011;6392;44.644;11.448;2022-11-20T08:16:41;46.40;;;24.73;;
12654;SDS011;6392;44.644;11.448;2022-11-20T08:19:09;50.80;;;26.07;;
12654;SDS011;6392;44.644;11.448;2022-11-20T08:21:38;45.97;;;24.30;;
12654;SDS011;6392;44.644;11.448;2022-11-20T08:24:06;50.63;;;25.23;;
12654;SDS011;6392;44.644;11.448;2022-11-20T08:26:34;46.37;;;23.83;;
12654;SDS011;6392;44.644;11.448;2022-11-20T08:29:02;47.00;;;23.37;;
12654;SDS011;6392;44.644;11.448;2022-11-20T08:31:30;45.30;;;22.37;;
12654;SDS011;6392;44.644;11.448;2022-11-20T08:33:57;47.03;;;23.77;;
12654;SDS011;6392;44.644;11.448;2022-11-20T08:36:24;44.07;;;23.83;;
12654;SDS011;6392;44.644;11.448;2022-11-20T08:38:54;47.07;;;24.80;;
12654;SDS011;6392;44.644;11.448;2022-11-20T08:41:22;49.47;;;24.90;;
12654;SDS011;6392;44.644;11.448;2022-11-20T08:43:52;50.77;;;25.77;;
12654;SDS011;6392;44.644;11.448;2022-11-20T08:46:21;52.40;;;26.40;;
12654;SDS011;6392;44.644;11.448;2022-11-20T08:48:49;58.80;;;28.67;;
12654;SDS011;6392;44.644;11.448;2022-11-20T08:51:16;48.97;;;25.63;;
12654;SDS011;6392;44.644;11.448;2022-11-20T08:53:44;49.07;;;27.67;;
12654;SDS011;6392;44.644;11.448;2022-11-20T08:56:12;48.50;;;25.73;;
12654;SDS011;6392;44.644;11.448;2022-11-20T08:58:39;50.80;;;26.40;;
12654;SDS011;6392;44.644;11.448;2022-11-20T09:01:07;55.37;;;27.63;;
12654;SDS011;6392;44.644;11.448;2022-11-20T09:03:34;54.37;;;27.20;;
12654;SDS011;6392;44.644;11.448;2022-11-20T09:06:01;51.00;;;28.30;;
12654;SDS011;6392;44.644;11.448;2022-11-20T09:08:30;42.30;;;24.33;;
12654;SDS011;6392;44.644;11.448;2022-11-20T09:10:58;48.57;;;26.47;;
12654;SDS011;6392;44.644;11.448;2022-11-20T09:13:27;51.73;;;27.63;;
12654;SDS011;6392;44.644;11.448;2022-11-20T09:15:55;56.43;;;30.07;;
12654;SDS011;6392;44.644;11.448;2022-11-20T09:18:23;55.30;;;30.27;;
12654;SDS011;6392;44.644;11.448;2022-11-20T09:20:51;55.10;;;28.90;;
12654;SDS011;6392;44.644;11.448;2022-11-20T09:23:22;52.63;;;27.03;;
12654;SDS011;6392;44.644;11.448;2022-11-20T09:25:49;47.07;;;26.63;;
12654;SDS011;6392;44.644;11.448;2022-11-20T09:28:17;48.43;;;27.83;;
12654;SDS011;6392;44.644;11.448;2022-11-20T09:30:46;53.33;;;28.53;;
12654;SDS011;6392;44.644;11.448;2022-11-20T09:33:13;47.13;;;25.20;;
12654;SDS011;6392;44.644;11.448;2022-11-20T09:35:40;45.17;;;25.93;;
12654;SDS011;6392;44.644;11.448;2022-11-20T09:38:08;51.17;;;29.07;;
12654;SDS011;6392;44.644;11.448;2022-11-20T09:40:37;52.00;;;28.43;;
12654;SDS011;6392;44.644;11.448;2022-11-20T09:43:07;44.10;;;26.67;;
12654;SDS011;6392;44.644;11.448;2022-11-20T09:45:47;48.80;;;26.87;;
12654;SDS011;6392;44.644;11.448;2022-11-20T09:51:35;45.23;;;25.60;;
12654;SDS011;6392;44.644;11.448;2022-11-20T09:54:12;46.20;;;26.53;;
12654;SDS011;6392;44.644;11.448;2022-11-20T09:56:42;47.07;;;25.47;;
12654;SDS011;6392;44.644;11.448;2022-11-20T09:59:22;43.33;;;25.57;;
12654;SDS011;6392;44.644;11.448;2022-11-20T10:01:59;46.40;;;24.47;;
12654;SDS011;6392;44.644;11.448;2022-11-20T10:04:28;47.30;;;25.83;;
12654;SDS011;6392;44.644;11.448;2022-11-20T10:07:00;46.97;;;27.40;;
12654;SDS011;6392;44.644;11.448;2022-11-20T10:09:35;47.70;;;27.83;;
12654;SDS011;6392;44.644;11.448;2022-11-20T10:12:13;48.80;;;28.63;;
12654;SDS011;6392;44.644;11.448;2022-11-20T10:14:53;47.33;;;27.77;;
12654;SDS011;6392;44.644;11.448;2022-11-20T10:17:43;45.50;;;27.10;;
12654;SDS011;6392;44.644;11.448;2022-11-20T10:20:22;49.73;;;28.10;;
12654;SDS011;6392;44.644;11.448;2022-11-20T10:23:11;47.03;;;26.17;;
12654;SDS011;6392;44.644;11.448;2022-11-20T10:25:51;43.43;;;23.93;;
12654;SDS011;6392;44.644;11.448;2022-11-20T10:28:28;42.20;;;25.07;;
12654;SDS011;6392;44.644;11.448;2022-11-20T10:31:08;44.20;;;25.37;;
12654;SDS011;6392;44.644;11.448;2022-11-20T10:33:40;43.00;;;25.23;;
12654;SDS011;6392;44.644;11.448;2022-11-20T10:36:14;46.10;;;24.87;;
12654;SDS011;6392;44.644;11.448;2022-11-20T10:38:46;33.97;;;22.97;;
12654;SDS011;6392;44.644;11.448;2022-11-20T10:41:20;44.00;;;24.33;;
12654;SDS011;6392;44.644;11.448;2022-11-20T10:43:51;47.03;;;24.93;;
12654;SDS011;6392;44.644;11.448;2022-11-20T10:46:22;38.20;;;20.73;;
12654;SDS011;6392;44.644;11.448;2022-11-20T10:48:52;38.27;;;21.67;;
12654;SDS011;6392;44.644;11.448;2022-11-20T10:51:23;43.53;;;23.10;;
12654;SDS011;6392;44.644;11.448;2022-11-20T10:54:05;37.77;;;23.67;;
12654;SDS011;6392;44.644;11.448;2022-11-20T10:56:53;39.23;;;22.43;;
12654;SDS011;6392;44.644;11.448;2022-11-20T10:59:30;38.03;;;23.13;;
12654;SDS011;6392;44.644;11.448;2022-11-20T11:02:16;37.43;;;21.77;;
12654;SDS011;6392;44.644;11.448;2022-11-20T11:04:47;37.77;;;21.40;;
12654;SDS011;6392;44.644;11.448;2022-11-20T11:07:16;31.70;;;18.90;;
12654;SDS011;6392;44.644;11.448;2022-11-20T11:09:48;35.93;;;21.13;;
12654;SDS011;6392;44.644;11.448;2022-11-20T11:12:17;36.27;;;21.93;;
12654;SDS011;6392;44.644;11.448;2022-11-20T11:14:46;36.40;;;21.10;;
12654;SDS011;6392;44.644;11.448;2022-11-20T11:17:24;24.13;;;14.63;;
12654;SDS011;6392;44.644;11.448;2022-11-20T11:20:01;28.10;;;14.57;;
12654;SDS011;6392;44.644;11.448;2022-11-20T11:22:31;29.97;;;17.90;;
12654;SDS011;6392;44.644;11.448;2022-11-20T11:25:00;27.20;;;15.83;;
12654;SDS011;6392;44.644;11.448;2022-11-20T11:27:28;25.47;;;15.40;;
12654;SDS011;6392;44.644;11.448;2022-11-20T11:30:12;27.40;;;16.03;;
12654;SDS011;6392;44.644;11.448;2022-11-20T11:32:41;20.90;;;11.97;;
12654;SDS011;6392;44.644;11.448;2022-11-20T11:35:20;16.93;;;10.07;;
12654;SDS011;6392;44.644;11.448;2022-11-20T11:37:49;16.17;;;9.10;;
12654;SDS011;6392;44.644;11.448;2022-11-20T11:40:19;16.47;;;10.07;;
12654;SDS011;6392;44.644;11.448;2022-11-20T11:42:50;19.50;;;11.30;;
12654;SDS011;6392;44.644;11.448;2022-11-20T11:45:23;17.87;;;10.70;;
12654;SDS011;6392;44.644;11.448;2022-11-20T11:47:50;9.93;;;6.87;;
12654;SDS011;6392;44.644;11.448;2022-11-20T11:50:21;21.53;;;11.83;;
12654;SDS011;6392;44.644;11.448;2022-11-20T11:55:40;22.93;;;11.90;;
12654;SDS011;6392;44.644;11.448;2022-11-20T11:58:13;20.00;;;11.83;;
12654;SDS011;6392;44.644;11.448;2022-11-20T12:00:47;19.63;;;12.33;;
12654;SDS011;6392;44.644;11.448;2022-11-20T12:03:21;21.70;;;12.17;;
12654;SDS011;6392;44.644;11.448;2022-11-20T12:05:55;16.37;;;9.63;;
12654;SDS011;6392;44.644;11.448;2022-11-20T12:08:27;16.37;;;10.10;;
12654;SDS011;6392;44.644;11.448;2022-11-20T12:10:59;15.40;;;9.57;;
12654;SDS011;6392;44.644;11.448;2022-11-20T12:13:34;12.60;;;8.10;;
12654;SDS011;6392;44.644;11.448;2022-11-20T12:16:07;13.03;;;8.30;;
12654;SDS011;6392;44.644;11.448;2022-11-20T12:18:38;15.80;;;8.33;;
12654;SDS011;6392;44.644;11.448;2022-11-20T12:21:10;14.83;;;7.77;;
12654;SDS011;6392;44.644;11.448;2022-11-20T12:23:49;14.90;;;8.07;;
12654;SDS011;6392;44.644;11.448;2022-11-20T12:26:32;15.00;;;7.70;;
12654;SDS011;6392;44.644;11.448;2022-11-20T12:29:17;12.73;;;6.87;;
12654;SDS011;6392;44.644;11.448;2022-11-20T12:31:57;15.60;;;8.13;;
12654;SDS011;6392;44.644;11.448;2022-11-20T12:34:43;14.90;;;7.83;;
12654;SDS011;6392;44.644;11.448;2022-11-20T12:37:19;11.97;;;7.77;;
12654;SDS011;6392;44.644;11.448;2022-11-20T12:39:59;14.00;;;8.23;;
12654;SDS011;6392;44.644;11.448;2022-11-20T12:42:43;9.97;;;6.97;;
12654;SDS011;6392;44.644;11.448;2022-11-20T12:48:50;10.47;;;6.10;;
12654;SDS011;6392;44.644;11.448;2022-11-20T12:51:38;10.17;;;6.20;;
12654;SDS011;6392;44.644;11.448;2022-11-20T12:54:31;11.53;;;6.27;;
12654;SDS011;6392;44.644;11.448;2022-11-20T12:57:18;11.97;;;6.50;;
12654;SDS011;6392;44.644;11.448;2022-11-20T13:00:00;10.03;;;5.73;;
12654;SDS011;6392;44.644;11.448;2022-11-20T13:02:37;7.87;;;5.47;;
12654;SDS011;6392;44.644;11.448;2022-11-20T13:05:24;10.97;;;6.00;;
12654;SDS011;6392;44.644;11.448;2022-11-20T13:07:59;11.07;;;6.23;;
12654;SDS011;6392;44.644;11.448;2022-11-20T13:10:32;11.27;;;5.63;;
12654;SDS011;6392;44.644;11.448;2022-11-20T13:13:03;11.20;;;5.30;;
12654;SDS011;6392;44.644;11.448;2022-11-20T13:15:47;10.17;;;4.77;;
12654;SDS011;6392;44.644;11.448;2022-11-20T13:18:20;7.20;;;5.20;;
12654;SDS011;6392;44.644;11.448;2022-11-20T13:20:47;7.63;;;5.07;;
12654;SDS011;6392;44.644;11.448;2022-11-20T13:23:22;8.03;;;5.07;;
12654;SDS011;6392;44.644;11.448;2022-11-20T13:26:04;7.70;;;5.13;;
12654;SDS011;6392;44.644;11.448;2022-11-20T13:28:32;9.13;;;5.13;;
12654;SDS011;6392;44.644;11.448;2022-11-20T13:30:59;9.80;;;5.33;;
12654;SDS011;6392;44.644;11.448;2022-11-20T13:33:30;9.87;;;5.50;;
12654;SDS011;6392;44.644;11.448;2022-11-20T13:35:59;11.17;;;6.33;;
12654;SDS011;6392;44.644;11.448;2022-11-20T13:38:28;10.17;;;5.87;;
12654;SDS011;6392;44.644;11.448;2022-11-20T13:41:08;12.70;;;6.77;;
12654;SDS011;6392;44.644;11.448;2022-11-20T13:43:49;10.10;;;6.40;;
12654;SDS011;6392;44.644;11.448;2022-11-20T13:46:18;9.33;;;6.07;;
12654;SDS011;6392;44.644;11.448;2022-11-20T13:48:49;12.57;;;6.07;;
12654;SDS011;6392;44.644;11.448;2022-11-20T13:51:25;10.93;;;6.17;;
12654;SDS011;6392;44.644;11.448;2022-11-20T13:54:04;9.90;;;6.07;;
12654;SDS011;6392;44.644;11.448;2022-11-20T13:56:50;12.03;;;6.30;;
12654;SDS011;6392;44.644;11.448;2022-11-20T13:59:32;12.33;;;6.50;;
12654;SDS011;6392;44.644;11.448;2022-11-20T14:02:11;8.37;;;5.37;;
12654;SDS011;6392;44.644;11.448;2022-11-20T14:04:42;11.03;;;5.47;;
12654;SDS011;6392;44.644;11.448;2022-11-20T14:07:12;12.93;;;6.40;;
12654;SDS011;6392;44.644;11.448;2022-11-20T14:09:48;11.03;;;5.47;;
12654;SDS011;6392;44.644;11.448;2022-11-20T14:12:18;10.17;;;5.53;;
12654;SDS011;6392;44.644;11.448;2022-11-20T14:14:47;14.57;;;5.80;;
12654;SDS011;6392;44.644;11.448;2022-11-20T14:17:17;12.47;;;5.87;;
12654;SDS011;6392;44.644;11.448;2022-11-20T14:19:45;9.77;;;6.03;;
12654;SDS011;6392;44.644;11.448;2022-11-20T14:22:18;10.73;;;5.90;;
12654;SDS011;6392;44.644;11.448;2022-11-20T14:24:47;12.27;;;6.50;;
12654;SDS011;6392;44.644;11.448;2022-11-20T14:27:16;8.50;;;5.10;;
12654;SDS011;6392;44.644;11.448;2022-11-20T14:29:47;8.87;;;5.23;;
12654;SDS011;6392;44.644;11.448;2022-11-20T14:32:17;9.10;;;5.57;;
12654;SDS011;6392;44.644;11.448;2022-11-20T14:34:47;7.67;;;5.33;;
12654;SDS011;6392;44.644;11.448;2022-11-20T14:37:17;9.43;;;5.70;;
12654;SDS011;6392;44.644;11.448;2022-11-20T14:39:48;10.50;;;5.50;;
12654;SDS011;6392;44.644;11.448;2022-11-20T14:42:20;10.23;;;5.73;;
12654;SDS011;6392;44.644;11.448;2022-11-20T14:44:49;8.20;;;4.80;;
12654;SDS011;6392;44.644;11.448;2022-11-20T14:47:18;10.27;;;5.17;;
12654;SDS011;6392;44.644;11.448;2022-11-20T14:49:47;10.13;;;5.83;;
12654;SDS011;6392;44.644;11.448;2022-11-20T14:52:16;8.50;;;5.40;;
12654;SDS011;6392;44.644;11.448;2022-11-20T14:54:45;8.60;;;5.27;;